Time;durP1;ratioP1;P1;durP2;ratioP2;P2;SDS_P1;SDS_P2;PMS_P1;PMS_P2;Temp;Humidity;BMP_temperature;BMP_pressure;BME280_temperature;BME280_humidity;BME280_pressure;Samples;Min_cycle;Max_cycle;Signal;HPM_P1;HPM_P2
2021/12/22 00:02:10;;;;;;;13.83;11.67;;;1.10;29.20;;;;;;6196868;28;20443;-58
2021/12/22 00:05:15;;;;;;;17.40;11.90;;;1.00;27.90;;;;;;6191135;28;20236;-59
2021/12/22 00:08:19;;;;;;;16.70;11.90;;;1.10;29.10;;;;;;6208641;28;20308;-58
2021/12/22 00:11:22;;;;;;;13.83;11.97;;;0.70;29.80;;;;;;6204510;28;20246;-59
2021/12/22 00:14:25;;;;;;;17.67;13.10;;;0.70;31.80;;;;;;6208236;28;20616;-59
2021/12/22 00:17:28;;;;;;;14.90;12.27;;;0.90;30.00;;;;;;6208041;28;20247;-58
2021/12/22 00:20:31;;;;;;;13.50;11.83;;;1.20;29.10;;;;;;6204208;28;20304;-59
2021/12/22 00:23:34;;;;;;;18.43;13.80;;;1.10;28.00;;;;;;6205905;28;20346;-59
2021/12/22 00:26:38;;;;;;;15.47;12.63;;;0.90;28.70;;;;;;6198478;28;20247;-58
2021/12/22 00:29:42;;;;;;;13.27;11.97;;;0.80;29.50;;;;;;6203921;28;20231;-60
2021/12/22 00:32:50;;;;;;;17.63;11.63;;;1.10;28.70;;;;;;6206520;28;20549;-59
2021/12/22 00:35:53;;;;;;;18.30;12.50;;;0.90;28.60;;;;;;6201218;28;20243;-56
2021/12/22 00:38:56;;;;;;;17.10;12.40;;;0.90;28.50;;;;;;6206466;28;20250;-58
2021/12/22 00:42:00;;;;;;;16.13;12.20;;;0.80;28.80;;;;;;6206412;28;20247;-59
2021/12/22 00:45:03;;;;;;;12.73;11.43;;;0.70;29.50;;;;;;6206220;28;20282;-58
2021/12/22 00:48:08;;;;;;;14.20;10.73;;;0.80;28.10;;;;;;6202959;28;20321;-58
2021/12/22 00:51:11;;;;;;;12.13;10.30;;;0.80;29.20;;;;;;6205585;28;20859;-57
2021/12/22 00:54:14;;;;;;;15.80;10.60;;;0.60;28.40;;;;;;6197029;28;20259;-57
2021/12/22 00:57:18;;;;;;;10.50;9.50;;;0.70;27.60;;;;;;6190862;28;20374;-58
2021/12/22 01:00:23;;;;;;;11.03;9.97;;;0.80;28.30;;;;;;6206737;28;20303;-58
2021/12/22 01:03:27;;;;;;;11.13;10.00;;;0.90;30.00;;;;;;6194176;28;20309;-57
2021/12/22 01:06:30;;;;;;;11.73;10.27;;;0.90;28.10;;;;;;6193811;28;20263;-58
2021/12/22 01:09:33;;;;;;;11.97;10.77;;;0.70;28.60;;;;;;6197701;28;20239;-57
2021/12/22 01:12:38;;;;;;;11.53;9.97;;;0.80;29.40;;;;;;6206398;28;20338;-59
2021/12/22 01:15:42;;;;;;;10.33;9.40;;;0.70;29.10;;;;;;6202262;28;20385;-58
2021/12/22 01:18:44;;;;;;;12.43;10.37;;;0.80;29.30;;;;;;6205629;28;20286;-58
2021/12/22 01:21:52;;;;;;;11.50;10.50;;;0.90;29.80;;;;;;6201767;28;20246;-58
2021/12/22 01:25:01;;;;;;;14.27;10.43;;;0.90;29.80;;;;;;6195224;28;20265;-58
2021/12/22 01:28:06;;;;;;;10.77;9.63;;;0.80;29.90;;;;;;6203236;28;20240;-58
2021/12/22 01:31:14;;;;;;;15.03;10.73;;;0.70;29.50;;;;;;6205721;28;20590;-57
2021/12/22 01:34:17;;;;;;;14.23;10.70;;;0.70;29.90;;;;;;6203895;28;20767;-58
2021/12/22 01:37:19;;;;;;;12.33;11.03;;;1.00;29.70;;;;;;6196870;28;20246;-57
2021/12/22 01:40:23;;;;;;;15.30;11.07;;;0.90;29.30;;;;;;6194917;28;20325;-58
2021/12/22 01:43:27;;;;;;;13.90;11.20;;;1.00;28.60;;;;;;6191597;28;20235;-58
2021/12/22 01:49:52;;;;;;;14.40;11.40;;;1.10;27.80;;;;;;6184214;28;20277;-58
2021/12/22 01:52:55;;;;;;;15.10;12.03;;;1.00;26.70;;;;;;6197940;28;20285;-58
2021/12/22 01:56:07;;;;;;;13.23;11.13;;;1.10;27.60;;;;;;6204299;28;20291;-58
2021/12/22 01:59:12;;;;;;;13.57;12.17;;;1.00;27.10;;;;;;6206229;28;20300;-58
2021/12/22 02:02:16;;;;;;;18.67;12.27;;;0.90;27.20;;;;;;6204411;28;20602;-60
2021/12/22 02:05:19;;;;;;;17.30;13.27;;;1.20;28.00;;;;;;6203230;28;20481;-60
2021/12/22 02:08:22;;;;;;;18.33;12.97;;;1.10;27.80;;;;;;6204652;28;20235;-59
2021/12/22 02:11:25;;;;;;;15.67;12.10;;;1.10;27.20;;;;;;6195722;28;20227;-54
2021/12/22 02:14:29;;;;;;;15.73;12.07;;;0.90;26.30;;;;;;6191077;28;20238;-58
2021/12/22 02:17:35;;;;;;;18.83;12.17;;;1.10;26.60;;;;;;6194083;28;20286;-58
2021/12/22 02:20:39;;;;;;;12.40;11.17;;;0.90;26.80;;;;;;6204697;28;20294;-57
2021/12/22 02:23:42;;;;;;;14.60;11.80;;;1.00;25.20;;;;;;6198159;28;20296;-59
2021/12/22 02:26:50;;;;;;;14.23;12.33;;;1.00;26.40;;;;;;6191681;28;20301;-57
2021/12/22 02:29:58;;;;;;;15.57;11.37;;;1.10;22.70;;;;;;6193149;28;20801;-58
2021/12/22 02:33:19;;;;;;;15.30;11.47;;;1.20;22.40;;;;;;6188215;28;20357;-59
2021/12/22 02:36:27;;;;;;;14.70;11.87;;;1.20;21.50;;;;;;6195387;28;20302;-57
2021/12/22 02:39:30;;;;;;;18.87;11.87;;;0.90;21.90;;;;;;6204227;28;20269;-58
2021/12/22 02:42:34;;;;;;;14.17;12.20;;;1.20;21.10;;;;;;6193981;28;20257;-58
2021/12/22 02:45:37;;;;;;;13.50;11.63;;;1.00;19.90;;;;;;6186934;28;20741;-58
2021/12/22 02:48:40;;;;;;;13.00;11.73;;;1.10;19.50;;;;;;6205899;28;20715;-57
2021/12/22 02:51:45;;;;;;;16.70;11.20;;;1.10;18.90;;;;;;6201809;28;20326;-58
2021/12/22 02:54:53;;;;;;;13.77;11.00;;;1.10;20.60;;;;;;6204398;28;20385;-57
2021/12/22 02:57:59;;;;;;;14.73;11.30;;;1.00;20.10;;;;;;6205834;28;20235;-59
2021/12/22 03:01:12;;;;;;;14.67;10.90;;;1.10;18.60;;;;;;6196715;28;20228;-59
2021/12/22 03:04:19;;;;;;;14.73;10.40;;;1.30;15.90;;;;;;6192357;28;20228;-57
2021/12/22 03:07:27;;;;;;;12.87;11.43;;;1.20;16.30;;;;;;6192494;28;20334;-59
2021/12/22 03:10:30;;;;;;;13.20;12.00;;;1.30;17.50;;;;;;6196008;28;20313;-59
2021/12/22 03:13:33;;;;;;;13.43;11.23;;;1.30;17.80;;;;;;6191239;28;20303;-57
2021/12/22 03:16:35;;;;;;;13.17;11.73;;;1.10;15.00;;;;;;6189246;28;20789;-59
2021/12/22 03:19:38;;;;;;;13.40;12.13;;;1.10;14.90;;;;;;6196963;28;20240;-60
2021/12/22 03:22:45;;;;;;;13.27;11.60;;;1.10;15.50;;;;;;6202575;28;20772;-60
2021/12/22 03:25:48;;;;;;;13.33;11.93;;;1.30;16.60;;;;;;6205577;28;20262;-57
2021/12/22 03:28:51;;;;;;;17.73;12.50;;;1.00;16.80;;;;;;6208912;28;20733;-58
2021/12/22 03:31:54;;;;;;;13.63;11.97;;;1.00;18.00;;;;;;6207872;28;20320;-60
2021/12/22 03:34:57;;;;;;;17.30;11.43;;;1.30;16.10;;;;;;6203660;28;20255;-57
2021/12/22 03:38:01;;;;;;;11.37;10.43;;;1.10;16.00;;;;;;6196843;28;20382;-56
2021/12/22 03:41:05;;;;;;;13.63;10.87;;;1.10;15.50;;;;;;6189667;28;20302;-57
2021/12/22 03:44:09;;;;;;;12.90;11.40;;;1.30;16.10;;;;;;6205469;28;20231;-57
2021/12/22 03:47:13;;;;;;;14.37;9.67;;;1.30;16.30;;;;;;6208698;28;20654;-57
2021/12/22 03:50:17;;;;;;;11.30;10.20;;;1.20;13.20;;;;;;6198585;28;20491;-57
2021/12/22 03:53:21;;;;;;;12.60;10.33;;;1.40;12.80;;;;;;6193264;28;20227;-60
2021/12/22 03:56:24;;;;;;;10.53;9.50;;;1.30;12.50;;;;;;6194395;28;20416;-58
2021/12/22 03:59:27;;;;;;;9.17;8.10;;;1.30;13.80;;;;;;6204739;28;20321;-57
2021/12/22 04:02:29;;;;;;;9.10;8.23;;;1.20;12.40;;;;;;6200335;28;20695;-59
2021/12/22 04:05:32;;;;;;;9.87;7.50;;;1.40;12.50;;;;;;6207712;28;20501;-59
2021/12/22 04:08:37;;;;;;;7.40;6.80;;;0.90;9.70;;;;;;6207598;28;20249;-59
2021/12/22 04:11:40;;;;;;;7.67;6.90;;;1.10;10.20;;;;;;6196363;28;20282;-58
2021/12/22 04:14:43;;;;;;;7.60;6.80;;;1.20;9.80;;;;;;6195574;28;20232;-57
2021/12/22 04:17:46;;;;;;;7.70;7.10;;;1.10;8.40;;;;;;6191749;28;20322;-57
2021/12/22 04:20:49;;;;;;;7.43;6.80;;;0.90;10.10;;;;;;6193933;28;20243;-59
2021/12/22 04:23:53;;;;;;;6.97;6.30;;;1.10;10.60;;;;;;6196194;28;20246;-59
2021/12/22 04:26:56;;;;;;;7.50;6.70;;;1.20;9.90;;;;;;6195507;28;20791;-58
2021/12/22 04:29:58;;;;;;;7.73;6.33;;;1.00;8.80;;;;;;6202947;28;20269;-58
2021/12/22 04:33:02;;;;;;;6.30;5.90;;;1.00;8.80;;;;;;6173348;28;20530;-61
2021/12/22 04:36:06;;;;;;;7.30;6.57;;;0.90;7.90;;;;;;6189000;28;20228;-59
2021/12/22 04:39:11;;;;;;;6.50;6.00;;;0.90;8.20;;;;;;6194309;28;20239;-57
2021/12/22 04:42:15;;;;;;;7.33;6.63;;;1.00;9.00;;;;;;6197604;28;20323;-58
2021/12/22 04:45:18;;;;;;;7.03;6.53;;;0.90;8.80;;;;;;6194781;28;20788;-59
2021/12/22 04:48:21;;;;;;;6.83;6.23;;;1.00;7.50;;;;;;6194452;28;20289;-59
2021/12/22 04:51:26;;;;;;;7.10;6.60;;;0.90;6.70;;;;;;6185888;28;20730;-58
2021/12/22 04:54:41;;;;;;;8.77;6.80;;;1.10;8.10;;;;;;6192829;28;20887;-59
2021/12/22 04:57:44;;;;;;;7.97;7.30;;;0.90;7.50;;;;;;6198389;28;20236;-58
2021/12/22 05:00:47;;;;;;;8.13;7.43;;;1.00;8.40;;;;;;6193682;28;20339;-59
2021/12/22 05:03:49;;;;;;;9.00;7.23;;;1.00;7.80;;;;;;6193674;28;20242;-59
2021/12/22 05:06:52;;;;;;;7.73;7.27;;;0.80;6.60;;;;;;6188586;28;20338;-59
2021/12/22 05:09:56;;;;;;;8.33;7.73;;;0.90;6.90;;;;;;6189625;28;20705;-59
2021/12/22 05:12:59;;;;;;;9.47;8.40;;;1.00;6.40;;;;;;6188926;28;20246;-59
2021/12/22 05:16:05;;;;;;;9.63;8.63;;;0.90;7.50;;;;;;6187277;28;20227;-57
2021/12/22 05:19:14;;;;;;;9.87;8.50;;;0.60;7.90;;;;;;6192296;28;20239;-57
2021/12/22 05:22:17;;;;;;;8.80;8.10;;;0.80;9.30;;;;;;6191783;28;20721;-57
2021/12/22 05:25:21;;;;;;;9.07;8.17;;;0.80;8.90;;;;;;6190759;28;20231;-59
2021/12/22 05:28:24;;;;;;;9.77;8.87;;;0.70;9.30;;;;;;6193646;28;20235;-58
2021/12/22 05:31:27;;;;;;;10.67;9.60;;;0.60;9.90;;;;;;6195772;28;20230;-57
2021/12/22 05:34:30;;;;;;;10.73;9.73;;;0.70;9.70;;;;;;6190714;28;20246;-59
2021/12/22 05:37:33;;;;;;;10.87;9.77;;;0.80;9.40;;;;;;6193032;28;20320;-59
2021/12/22 05:40:37;;;;;;;11.70;10.57;;;0.60;9.50;;;;;;6193274;28;20297;-63
2021/12/22 05:43:43;;;;;;;10.20;9.37;;;0.70;11.00;;;;;;6190734;28;20236;-59
2021/12/22 05:46:46;;;;;;;13.93;10.30;;;0.60;8.70;;;;;;6194609;28;20569;-57
2021/12/22 05:49:49;;;;;;;12.03;10.43;;;0.90;8.80;;;;;;6193503;28;20832;-58
2021/12/22 05:52:52;;;;;;;12.17;10.87;;;1.00;9.20;;;;;;6193089;28;20255;-58
2021/12/22 05:55:57;;;;;;;11.83;10.67;;;0.80;9.60;;;;;;6191621;28;20650;-58
2021/12/22 05:59:00;;;;;;;13.00;10.90;;;0.90;9.20;;;;;;6195087;28;20312;-58
2021/12/22 06:02:03;;;;;;;14.63;11.67;;;0.70;10.10;;;;;;6196105;28;20224;-56
2021/12/22 06:05:07;;;;;;;13.90;10.70;;;0.50;11.60;;;;;;6192214;28;20231;-58
2021/12/22 06:08:10;;;;;;;12.50;11.20;;;0.50;12.50;;;;;;6191849;28;20790;-57
2021/12/22 06:11:14;;;;;;;12.90;10.77;;;0.20;12.70;;;;;;6183867;28;20231;-57
2021/12/22 06:14:17;;;;;;;12.97;11.40;;;0.50;12.60;;;;;;6191749;28;20306;-58
2021/12/22 06:17:20;;;;;;;15.77;12.23;;;0.70;12.40;;;;;;6188952;28;20235;-57
2021/12/22 06:20:23;;;;;;;17.20;12.73;;;0.50;12.80;;;;;;6194965;28;20306;-56
2021/12/22 06:23:26;;;;;;;16.10;12.30;;;0.40;13.80;;;;;;6190778;28;20334;-57
2021/12/22 06:26:30;;;;;;;13.00;11.60;;;0.30;14.80;;;;;;6190325;28;20375;-57
2021/12/22 06:29:33;;;;;;;15.77;12.00;;;0.30;15.20;;;;;;6189805;28;20293;-57
2021/12/22 06:32:35;;;;;;;13.73;12.13;;;0.40;16.00;;;;;;6177869;28;20375;-57
2021/12/22 06:35:38;;;;;;;12.70;11.50;;;0.10;16.50;;;;;;6180652;28;20532;-58
2021/12/22 06:38:41;;;;;;;16.33;13.00;;;0.40;16.40;;;;;;6181252;28;20265;-58
2021/12/22 06:41:46;;;;;;;15.10;12.43;;;0.40;17.10;;;;;;6181811;28;20322;-57
2021/12/22 06:44:49;;;;;;;17.07;12.20;;;0.50;16.80;;;;;;6185885;28;20248;-57
2021/12/22 06:47:52;;;;;;;15.73;12.83;;;0.50;16.80;;;;;;6187851;28;20414;-57
2021/12/22 06:50:55;;;;;;;16.13;13.10;;;0.40;15.80;;;;;;6184898;28;20359;-57
2021/12/22 06:53:58;;;;;;;14.77;11.97;;;0.40;15.70;;;;;;6182867;28;20326;-57
2021/12/22 06:57:03;;;;;;;13.80;12.40;;;0.30;16.80;;;;;;6185459;28;20267;-58
2021/12/22 07:00:08;;;;;;;17.47;13.43;;;0.40;17.00;;;;;;6186642;28;20655;-58
2021/12/22 07:03:11;;;;;;;19.20;13.37;;;0.30;16.70;;;;;;6184055;28;20554;-58
2021/12/22 07:06:14;;;;;;;15.67;12.40;;;0.60;16.70;;;;;;6186279;28;20232;-58
2021/12/22 07:09:17;;;;;;;22.80;13.27;;;0.60;16.00;;;;;;6180698;28;20796;-59
2021/12/22 07:12:21;;;;;;;15.30;13.60;;;0.50;16.60;;;;;;6186831;28;20866;-58
2021/12/22 07:15:24;;;;;;;17.50;14.00;;;0.40;16.90;;;;;;6199768;28;20306;-58
2021/12/22 07:18:27;;;;;;;17.67;13.90;;;0.50;17.40;;;;;;6200011;28;20241;-55
2021/12/22 07:21:31;;;;;;;15.00;13.30;;;0.50;19.00;;;;;;6196057;28;20325;-56
2021/12/22 07:24:33;;;;;;;21.73;14.00;;;0.40;18.70;;;;;;6191134;28;20325;-56
2021/12/22 07:27:37;;;;;;;15.23;13.47;;;0.40;19.70;;;;;;6203416;28;20406;-57
2021/12/22 07:30:40;;;;;;;15.00;13.13;;;0.30;19.70;;;;;;6217221;28;20266;-58
2021/12/22 07:33:47;;;;;;;17.80;12.80;;;0.20;19.60;;;;;;6216774;28;20418;-58
2021/12/22 07:36:59;;;;;;;19.27;14.03;;;0.40;19.70;;;;;;6197893;28;20255;-57
2021/12/22 07:40:02;;;;;;;19.63;13.90;;;0.40;20.30;;;;;;6198502;28;20291;-58
2021/12/22 07:43:06;;;;;;;16.67;13.40;;;0.50;20.10;;;;;;6197660;28;20422;-57
2021/12/22 07:46:09;;;;;;;16.57;13.33;;;0.40;19.80;;;;;;6198024;28;20244;-58
2021/12/22 07:49:12;;;;;;;16.80;13.70;;;0.10;20.30;;;;;;6197699;28;20251;-59
2021/12/22 07:52:15;;;;;;;16.80;14.23;;;0.40;21.00;;;;;;6195985;28;20385;-59
2021/12/22 07:55:17;;;;;;;15.10;13.60;;;0.20;21.10;;;;;;6195471;28;20834;-59
2021/12/22 07:58:23;;;;;;;18.87;13.87;;;0.50;21.20;;;;;;6198304;28;20240;-57
2021/12/22 08:01:25;;;;;;;21.33;14.67;;;0.40;19.80;;;;;;6201291;28;20721;-58
2021/12/22 08:04:28;;;;;;;17.63;14.03;;;0.60;20.00;;;;;;6195543;28;20235;-57
2021/12/22 08:07:31;;;;;;;17.43;14.10;;;0.80;19.70;;;;;;6201138;28;20318;-57
2021/12/22 08:10:34;;;;;;;18.33;14.07;;;0.60;18.40;;;;;;6206145;28;20311;-57
2021/12/22 08:13:38;;;;;;;20.07;15.00;;;0.70;17.60;;;;;;6200166;28;20235;-56
2021/12/22 08:16:41;;;;;;;22.53;14.57;;;0.90;18.60;;;;;;6203599;28;20243;-57
2021/12/22 08:19:45;;;;;;;20.20;15.07;;;0.90;17.90;;;;;;6199592;28;20661;-58
2021/12/22 08:22:48;;;;;;;16.33;14.37;;;0.90;16.00;;;;;;6199744;28;20254;-56
2021/12/22 08:25:51;;;;;;;19.30;14.80;;;0.90;13.70;;;;;;6203691;28;20273;-57
2021/12/22 08:28:55;;;;;;;16.17;14.17;;;1.20;13.30;;;;;;6204903;28;20239;-59
2021/12/22 08:31:58;;;;;;;20.90;15.60;;;1.30;13.70;;;;;;6204211;28;20243;-58
2021/12/22 08:35:03;;;;;;;19.37;14.43;;;1.30;7.80;;;;;;6199979;28;20238;-59
2021/12/22 08:41:28;;;;;;;21.67;14.00;;;1.10;8.30;;;;;;6201490;28;20228;-58
2021/12/22 08:44:33;;;;;;;17.13;13.53;;;1.10;9.00;;;;;;6205915;28;20327;-58
2021/12/22 08:47:35;;;;;;;18.37;12.90;;;1.30;8.50;;;;;;6195583;28;20236;-58
2021/12/22 08:50:39;;;;;;;19.50;14.10;;;1.30;5.00;;;;;;6199785;28;20246;-58
2021/12/22 08:53:43;;;;;;;17.43;13.63;;;1.30;6.10;;;;;;6197135;28;20239;-60
2021/12/22 08:56:46;;;;;;;16.70;13.03;;;1.30;6.20;;;;;;6204341;28;20402;-58
2021/12/22 08:59:51;;;;;;;16.90;12.77;;;1.20;6.60;;;;;;6211301;28;20733;-58
2021/12/22 09:02:53;;;;;;;16.20;13.23;;;1.40;5.00;;;;;;6207933;28;20335;-58
2021/12/22 09:05:57;;;;;;;14.80;12.53;;;1.50;5.90;;;;;;6193122;28;20255;-58
2021/12/22 09:08:59;;;;;;;13.93;12.37;;;1.50;4.30;;;;;;6205536;28;20246;-58
2021/12/22 09:12:02;;;;;;;15.87;12.93;;;1.40;4.40;;;;;;6200989;28;20330;-58
2021/12/22 09:15:07;;;;;;;17.43;13.17;;;1.70;3.50;;;;;;6203893;28;20707;-57
2021/12/22 09:18:10;;;;;;;21.37;13.70;;;1.50;4.60;;;;;;6196197;28;20375;-58
2021/12/22 09:21:16;;;;;;;19.13;13.53;;;1.80;3.20;;;;;;6205805;28;20318;-57
2021/12/22 09:24:18;;;;;;;19.37;13.80;;;1.60;3.40;;;;;;6192626;28;20290;-57
2021/12/22 09:27:21;;;;;;;18.70;13.93;;;1.90;1.00;;;;;;6192064;28;20576;-57
2021/12/22 09:30:25;;;;;;;20.13;15.10;;;1.80;1.60;;;;;;6198111;28;20330;-58
2021/12/22 09:33:28;;;;;;;20.87;15.67;;;1.70;1.00;;;;;;6200277;28;20768;-58
2021/12/22 09:36:31;;;;;;;27.00;16.83;;;2.00;1.00;;;;;;6189976;28;20586;-58
2021/12/22 09:39:34;;;;;;;21.97;15.80;;;1.70;1.40;;;;;;6197464;28;20239;-55
2021/12/22 09:42:37;;;;;;;24.17;16.83;;;1.80;1.90;;;;;;6198343;28;20315;-57
2021/12/22 09:45:45;;;;;;;20.80;16.23;;;1.80;1.20;;;;;;6199232;28;20261;-56
2021/12/22 09:48:52;;;;;;;23.03;16.40;;;2.20;1.00;;;;;;6193360;28;20238;-59
2021/12/22 09:55:15;;;;;;;23.63;18.27;;;2.40;1.00;;;;;;6194314;28;20382;-58
2021/12/22 09:58:18;;;;;;;22.13;17.53;;;2.00;1.00;;;;;;6205175;28;20289;-59
2021/12/22 10:01:25;;;;;;;21.27;17.27;;;2.20;1.00;;;;;;6198033;28;20236;-58
2021/12/22 10:04:28;;;;;;;29.27;18.70;;;2.40;1.00;;;;;;6203026;28;20233;-59
2021/12/22 10:07:37;;;;;;;25.43;18.67;;;2.10;1.00;;;;;;6201188;28;20278;-59
2021/12/22 10:10:43;;;;;;;25.23;18.77;;;2.30;1.00;;;;;;6199941;28;20825;-59
2021/12/22 10:13:46;;;;;;;22.30;17.90;;;2.40;1.00;;;;;;6187800;28;20250;-59
2021/12/22 10:16:53;;;;;;;29.07;19.80;;;2.30;1.00;;;;;;6209470;28;20294;-60
2021/12/22 10:19:57;;;;;;;25.70;18.80;;;2.50;1.00;;;;;;6196673;28;20247;-59
2021/12/22 10:22:59;;;;;;;24.87;19.20;;;2.30;1.00;;;;;;6190829;28;20549;-59
2021/12/22 10:26:04;;;;;;;23.67;19.53;;;2.20;1.00;;;;;;6197724;28;20242;-58
2021/12/22 10:29:08;;;;;;;28.57;19.57;;;2.00;1.00;;;;;;6191042;28;20318;-59
2021/12/22 10:32:14;;;;;;;29.80;21.20;;;2.10;1.00;;;;;;6193932;28;20585;-56
2021/12/22 10:35:18;;;;;;;24.20;18.73;;;2.10;1.00;;;;;;6196902;28;20312;-59
2021/12/22 10:38:23;;;;;;;26.60;19.47;;;2.20;1.00;;;;;;6204067;28;20242;-58
2021/12/22 10:41:29;;;;;;;27.60;19.03;;;2.00;1.00;;;;;;6212044;28;20259;-57
2021/12/22 10:44:36;;;;;;;26.27;20.70;;;2.00;1.00;;;;;;6202499;28;20231;-58
2021/12/22 10:51:05;;;;;;;23.33;18.63;;;2.10;1.00;;;;;;6207244;28;20235;-59
2021/12/22 10:54:10;;;;;;;27.47;19.57;;;2.00;1.00;;;;;;6192584;28;20286;-58
2021/12/22 10:57:13;;;;;;;26.03;20.00;;;2.10;1.00;;;;;;6194974;28;20267;-57
2021/12/22 11:00:19;;;;;;;24.03;19.40;;;2.40;1.00;;;;;;6197414;28;20731;-57
2021/12/22 11:03:33;;;;;;;29.30;18.70;;;2.20;1.00;;;;;;6197147;28;20389;-57
2021/12/22 11:06:39;;;;;;;26.40;19.07;;;2.30;1.00;;;;;;6207348;28;20260;-57
2021/12/22 11:09:43;;;;;;;23.07;18.23;;;2.60;1.00;;;;;;6196642;28;20494;-58
2021/12/22 11:12:46;;;;;;;25.90;18.57;;;2.30;1.00;;;;;;6207749;28;20295;-58
2021/12/22 11:15:53;;;;;;;27.03;19.20;;;2.20;1.00;;;;;;6199304;28;20243;-58
2021/12/22 11:19:08;;;;;;;21.00;18.23;;;2.30;1.00;;;;;;6194444;28;20414;-59
2021/12/22 11:22:13;;;;;;;26.73;18.80;;;2.50;1.00;;;;;;6199021;28;20292;-59
2021/12/22 11:25:16;;;;;;;23.93;20.00;;;2.00;1.00;;;;;;6194600;28;20236;-59
2021/12/22 11:28:19;;;;;;;25.77;18.07;;;2.60;1.00;;;;;;6204604;28;20255;-58
2021/12/22 11:31:22;;;;;;;25.03;18.43;;;2.50;1.00;;;;;;6199044;28;20539;-58
2021/12/22 11:34:27;;;;;;;26.70;18.57;;;2.60;1.00;;;;;;6211448;28;20409;-56
2021/12/22 11:37:30;;;;;;;23.10;17.60;;;2.70;1.00;;;;;;6212309;28;20614;-59
2021/12/22 11:40:34;;;;;;;26.47;18.90;;;2.40;1.00;;;;;;6199202;28;20771;-59
2021/12/22 11:43:38;;;;;;;20.83;17.67;;;2.50;1.00;;;;;;6203007;28;20696;-59
2021/12/22 11:46:41;;;;;;;19.30;16.53;;;2.70;1.00;;;;;;6210476;28;20297;-58
2021/12/22 11:49:53;;;;;;;22.73;18.13;;;2.90;1.00;;;;;;6202601;28;20235;-59
2021/12/22 11:52:59;;;;;;;21.53;16.20;;;2.70;1.00;;;;;;6197382;28;20239;-58
2021/12/22 11:56:02;;;;;;;21.07;16.67;;;2.90;1.00;;;;;;6202366;28;20667;-58
2021/12/22 11:59:05;;;;;;;21.13;15.57;;;3.10;1.00;;;;;;6192768;28;20240;-59
2021/12/22 12:02:19;;;;;;;18.87;16.53;;;3.10;1.00;;;;;;6205540;28;20236;-58
2021/12/22 12:05:25;;;;;;;21.43;15.97;;;2.80;1.00;;;;;;6201225;28;20698;-58
2021/12/22 12:08:34;;;;;;;21.57;16.40;;;3.00;1.00;;;;;;6201895;28;20366;-60
2021/12/22 12:11:49;;;;;;;25.57;16.80;;;2.90;1.00;;;;;;6206303;28;20455;-59
2021/12/22 12:15:06;;;;;;;22.17;17.17;;;3.00;1.00;;;;;;6197423;28;20231;-60
2021/12/22 12:21:57;;;;;;;23.63;17.43;;;3.00;1.00;;;;;;6174269;28;20243;-59
2021/12/22 12:25:04;;;;;;;21.43;16.47;;;3.20;1.00;;;;;;6200440;28;20301;-59
2021/12/22 12:28:15;;;;;;;19.50;15.20;;;3.10;1.00;;;;;;6190212;28;20347;-60
2021/12/22 12:31:37;;;;;;;20.33;16.50;;;3.20;1.00;;;;;;6202787;28;20242;-59
2021/12/22 12:34:43;;;;;;;23.03;17.17;;;3.20;1.00;;;;;;6205800;28;20227;-58
2021/12/22 12:38:06;;;;;;;21.57;16.97;;;2.60;1.00;;;;;;6208439;28;20741;-59
2021/12/22 12:41:21;;;;;;;22.87;18.27;;;2.90;1.00;;;;;;6178511;28;20251;-59
2021/12/22 12:44:30;;;;;;;22.93;17.53;;;2.70;1.00;;;;;;6174414;28;20559;-58
2021/12/22 12:47:33;;;;;;;24.50;17.73;;;3.10;1.00;;;;;;6203822;28;20259;-59
2021/12/22 12:50:35;;;;;;;23.00;18.03;;;3.00;1.00;;;;;;6191762;28;20245;-59
2021/12/22 12:53:42;;;;;;;30.50;19.93;;;3.00;1.00;;;;;;6201135;28;20255;-60
2021/12/22 12:56:47;;;;;;;26.43;19.07;;;2.90;1.00;;;;;;6207155;28;20291;-59
2021/12/22 12:59:51;;;;;;;27.20;18.90;;;2.90;1.00;;;;;;6195389;28;20378;-58
2021/12/22 13:03:02;;;;;;;27.63;19.80;;;3.10;1.00;;;;;;6175541;28;20773;-61
2021/12/22 13:06:09;;;;;;;27.43;19.77;;;3.20;1.00;;;;;;6182598;28;20752;-59
2021/12/22 13:09:22;;;;;;;29.20;19.80;;;2.90;1.00;;;;;;6174287;28;20312;-60
2021/12/22 13:12:36;;;;;;;24.50;18.50;;;2.90;1.00;;;;;;6175496;28;20246;-58
2021/12/22 13:15:49;;;;;;;27.63;18.37;;;2.70;1.00;;;;;;6169989;28;20233;-59
2021/12/22 13:18:52;;;;;;;25.97;18.10;;;2.50;1.00;;;;;;6194345;28;20240;-59
2021/12/22 13:21:56;;;;;;;23.17;19.07;;;2.60;1.00;;;;;;6206141;28;20640;-59
2021/12/22 13:25:13;;;;;;;21.77;17.03;;;2.60;1.00;;;;;;6190823;28;20374;-60
2021/12/22 13:28:18;;;;;;;25.30;17.23;;;2.50;1.00;;;;;;6203353;28;20291;-59
2021/12/22 13:31:21;;;;;;;21.93;17.07;;;2.10;1.00;;;;;;6205806;28;20749;-58
2021/12/22 13:34:24;;;;;;;20.43;16.37;;;2.10;1.00;;;;;;6187302;28;20228;-59
2021/12/22 13:37:27;;;;;;;20.70;16.60;;;2.10;1.00;;;;;;6195845;28;20873;-59
2021/12/22 13:40:41;;;;;;;18.97;16.30;;;2.20;1.00;;;;;;6175303;28;20323;-59
2021/12/22 13:43:47;;;;;;;18.20;16.20;;;2.20;1.00;;;;;;6192196;28;20529;-59
2021/12/22 13:46:50;;;;;;;22.27;16.17;;;2.20;1.00;;;;;;6209772;28;20271;-58
2021/12/22 13:49:53;;;;;;;26.07;17.43;;;2.30;1.00;;;;;;6193832;28;20305;-62
2021/12/22 13:52:55;;;;;;;19.03;16.63;;;2.30;1.00;;;;;;6192839;28;20467;-59
2021/12/22 13:56:01;;;;;;;24.20;16.30;;;2.40;1.00;;;;;;6196692;28;20243;-59
2021/12/22 13:59:06;;;;;;;18.03;16.07;;;2.10;1.00;;;;;;6195360;28;20330;-57
2021/12/22 14:02:09;;;;;;;17.73;15.37;;;2.10;1.00;;;;;;6192573;28;20240;-59
2021/12/22 14:05:14;;;;;;;22.00;17.40;;;2.10;1.00;;;;;;6196863;28;20370;-60
2021/12/22 14:08:24;;;;;;;19.20;15.73;;;2.10;1.00;;;;;;6193234;28;20715;-58
2021/12/22 14:11:33;;;;;;;22.07;17.23;;;2.20;1.00;;;;;;6195835;28;20228;-59
2021/12/22 14:14:37;;;;;;;18.53;16.43;;;2.10;1.00;;;;;;6199993;28;20228;-57
2021/12/22 14:17:44;;;;;;;21.30;16.33;;;2.20;1.00;;;;;;6194913;28;20330;-59
2021/12/22 14:20:46;;;;;;;22.90;16.83;;;2.10;1.00;;;;;;6194128;28;20240;-58
2021/12/22 14:23:58;;;;;;;20.47;16.93;;;2.00;1.00;;;;;;6204287;28;20695;-57
2021/12/22 14:27:03;;;;;;;22.77;16.60;;;2.10;1.00;;;;;;6181586;28;20239;-58
2021/12/22 14:30:11;;;;;;;17.83;15.87;;;2.00;1.00;;;;;;6198083;28;20231;-58
2021/12/22 14:33:16;;;;;;;20.87;16.57;;;1.90;1.00;;;;;;6193801;28;20348;-58
2021/12/22 14:36:18;;;;;;;18.93;16.50;;;2.00;1.00;;;;;;6194600;28;20315;-58
2021/12/22 14:39:37;;;;;;;20.00;17.33;;;1.70;1.00;;;;;;6205909;28;20246;-58
2021/12/22 14:42:41;;;;;;;18.57;16.10;;;1.90;1.00;;;;;;6204794;28;20231;-59
2021/12/22 14:45:45;;;;;;;22.07;16.93;;;1.70;1.00;;;;;;6200941;28;20290;-57
2021/12/22 14:48:48;;;;;;;22.63;16.33;;;1.50;1.00;;;;;;6206279;28;20242;-59
2021/12/22 14:51:53;;;;;;;19.73;16.23;;;1.70;1.00;;;;;;6207060;28;20278;-58
2021/12/22 14:54:55;;;;;;;22.57;16.17;;;1.40;1.00;;;;;;6206011;28;20727;-59
2021/12/22 14:57:59;;;;;;;18.50;16.67;;;1.60;1.00;;;;;;6203774;28;20735;-60
2021/12/22 15:01:04;;;;;;;18.13;15.50;;;1.40;1.00;;;;;;6197247;28;20258;-59
2021/12/22 15:04:06;;;;;;;19.80;16.77;;;1.50;1.00;;;;;;6203736;28;20259;-58
2021/12/22 15:07:10;;;;;;;23.60;17.67;;;1.30;1.30;;;;;;6205761;28;20614;-58
2021/12/22 15:10:13;;;;;;;23.87;17.30;;;1.30;1.00;;;;;;6206882;28;20314;-60
2021/12/22 15:13:17;;;;;;;19.67;16.93;;;1.60;1.60;;;;;;6206115;28;20318;-58
2021/12/22 15:16:22;;;;;;;19.30;16.43;;;1.50;1.30;;;;;;6202812;28;20707;-58
2021/12/22 15:19:25;;;;;;;21.10;16.53;;;1.40;1.70;;;;;;6203916;28;20235;-58
2021/12/22 15:22:28;;;;;;;22.33;16.77;;;1.30;2.30;;;;;;6201815;28;20322;-58
2021/12/22 15:25:31;;;;;;;19.83;17.63;;;1.50;2.20;;;;;;6203298;28;20235;-58
2021/12/22 15:28:35;;;;;;;23.47;18.00;;;1.50;2.00;;;;;;6193418;28;20231;-58
2021/12/22 15:31:39;;;;;;;22.50;17.77;;;1.30;2.90;;;;;;6188771;28;20228;-57
2021/12/22 15:34:42;;;;;;;25.97;18.93;;;1.40;3.80;;;;;;6186852;28;20871;-57
2021/12/22 15:37:44;;;;;;;26.67;18.63;;;1.10;3.80;;;;;;6188773;28;20283;-57
2021/12/22 15:40:48;;;;;;;24.20;18.43;;;1.10;4.50;;;;;;6198810;28;20296;-57
2021/12/22 15:43:52;;;;;;;24.63;19.20;;;1.30;4.40;;;;;;6204721;28;20727;-56
2021/12/22 15:46:55;;;;;;;24.57;18.63;;;1.20;4.30;;;;;;6192084;28;20257;-57
2021/12/22 15:49:57;;;;;;;29.33;20.57;;;1.20;4.30;;;;;;6196978;28;20239;-58
2021/12/22 15:53:01;;;;;;;25.20;19.37;;;1.30;5.30;;;;;;6193866;28;20255;-59
2021/12/22 15:56:05;;;;;;;26.87;19.37;;;1.00;6.00;;;;;;6193647;28;20255;-59
2021/12/22 15:59:09;;;;;;;24.53;19.03;;;1.30;6.70;;;;;;6196319;28;20243;-58
2021/12/22 16:02:12;;;;;;;26.17;20.10;;;1.20;6.70;;;;;;6188852;28;20231;-58
2021/12/22 16:05:19;;;;;;;27.40;19.97;;;1.20;7.20;;;;;;6206319;28;20326;-59
2021/12/22 16:08:21;;;;;;;29.37;20.10;;;1.10;8.40;;;;;;6207613;28;20255;-60
2021/12/22 16:11:24;;;;;;;27.17;20.13;;;1.10;7.80;;;;;;6204307;28;20239;-58
2021/12/22 16:14:28;;;;;;;29.00;20.23;;;1.10;8.30;;;;;;6193253;28;20492;-59
2021/12/22 16:17:31;;;;;;;23.73;19.30;;;1.10;8.70;;;;;;6185819;28;20244;-58